createdAt,value
2022-08-03T00:00:15.898Z,77.19
2022-08-03T00:02:42.701Z,77.05
2022-08-03T00:05:09.753Z,77.29
2022-08-03T00:07:57.035Z,76.81
2022-08-03T00:10:45.706Z,76.65
2022-08-03T00:13:13.313Z,77.56
2022-08-03T00:16:00.000Z,77.85
2022-08-03T00:19:01.142Z,78.15
2022-08-03T00:21:41.561Z,77.66
2022-08-03T00:24:08.568Z,77.33
2022-08-03T00:26:35.401Z,78.29
2022-08-03T00:29:02.613Z,78.51
2022-08-03T00:31:40.278Z,78.89
2022-08-03T00:34:16.187Z,78.64
2022-08-03T00:36:42.988Z,78.10
2022-08-03T00:39:10.103Z,78.85
2022-08-03T00:41:37.156Z,77.25
2022-08-03T00:44:04.144Z,77.26
2022-08-03T00:46:30.983Z,76.16
2022-08-03T00:49:18.111Z,76.18
2022-08-03T00:52:19.368Z,76.97
2022-08-03T00:55:15.547Z,76.28
2022-08-03T00:57:43.008Z,77.15
2022-08-03T01:00:11.306Z,78.10
2022-08-03T01:02:39.668Z,78.48
2022-08-03T01:05:07.571Z,76.32
2022-08-03T01:08:16.046Z,76.49
2022-08-03T01:11:15.777Z,77.26
2022-08-03T01:14:19.359Z,76.36
2022-08-03T01:17:05.086Z,76.68
2022-08-03T01:20:14.036Z,76.46
2022-08-03T01:23:53.078Z,75.99
2022-08-03T01:26:42.409Z,76.49
2022-08-03T01:29:21.575Z,76.06
2022-08-03T01:32:58.411Z,76.46
2022-08-03T01:34:48.640Z,76.19
2022-08-03T01:37:20.001Z,76.75
2022-08-03T01:39:47.516Z,77.25
2022-08-03T01:42:14.987Z,76.77
2022-08-03T01:44:44.270Z,76.99
2022-08-03T01:47:11.978Z,77.73
2022-08-03T01:49:40.783Z,78.16
2022-08-03T01:52:07.956Z,79.05
2022-08-03T01:54:57.092Z,78.81
2022-08-03T01:58:06.177Z,78.77
2022-08-03T02:00:50.344Z,78.46
2022-08-03T02:03:17.743Z,78.82
2022-08-03T02:05:45.963Z,79.87
2022-08-03T02:08:33.107Z,79.95
2022-08-03T02:11:13.627Z,81.19
2022-08-03T02:14:03.093Z,80.59
2022-08-03T02:16:44.725Z,79.88
2022-08-03T02:19:11.995Z,80.50
2022-08-03T02:21:56.409Z,80.48
2022-08-03T02:24:26.335Z,81.25
2022-08-03T02:26:56.900Z,80.51
2022-08-03T02:29:46.102Z,80.84
2022-08-03T02:32:31.369Z,82.59
2022-08-03T02:34:59.644Z,82.85
2022-08-03T02:37:31.169Z,83.00
2022-08-03T02:40:01.003Z,81.62
2022-08-03T02:42:28.673Z,83.98
2022-08-03T02:44:57.485Z,83.85
2022-08-03T02:47:27.348Z,83.51
2022-08-03T02:49:54.597Z,85.48
2022-08-03T02:52:23.478Z,85.52
2022-08-03T02:54:52.412Z,84.68
2022-08-03T02:57:20.106Z,85.99
2022-08-03T03:00:00.174Z,86.62
2022-08-03T03:03:01.148Z,86.37
2022-08-03T03:06:05.797Z,86.62
2022-08-03T03:08:55.550Z,87.89
2022-08-03T03:11:40.530Z,90.05
2022-08-03T03:14:33.959Z,91.90
2022-08-03T03:17:15.289Z,93.40
2022-08-03T03:19:43.136Z,92.65
2022-08-03T03:22:10.863Z,92.78
2022-08-03T03:24:38.078Z,92.76
2022-08-03T03:27:05.142Z,93.91
2022-08-03T03:29:36.599Z,90.53
2022-08-03T03:32:09.201Z,88.76
2022-08-03T03:34:56.149Z,88.52
2022-08-03T03:37:36.546Z,88.57
2022-08-03T03:40:03.967Z,89.63
2022-08-03T03:42:31.171Z,89.98
2022-08-03T03:44:58.095Z,91.04
2022-08-03T03:47:32.415Z,92.35
2022-08-03T03:49:59.728Z,93.10
2022-08-03T03:52:26.552Z,96.15
2022-08-03T03:54:56.408Z,95.45
2022-08-03T03:57:27.636Z,95.81
2022-08-03T03:59:54.401Z,94.37
2022-08-03T04:02:21.269Z,95.99
2022-08-03T04:05:26.174Z,94.92
2022-08-03T04:08:49.385Z,95.84
2022-08-03T04:11:32.166Z,96.35
2022-08-03T04:14:21.168Z,98.35
2022-08-03T04:17:03.403Z,98.92
2022-08-03T04:19:36.233Z,100.00
2022-08-03T04:22:06.566Z,100.00
2022-08-03T04:24:35.309Z,98.84
2022-08-03T04:27:04.953Z,100.00
2022-08-03T04:29:33.712Z,99.59
2022-08-03T04:32:01.140Z,100.00
2022-08-03T04:34:30.448Z,100.00
2022-08-03T04:36:59.209Z,98.13
2022-08-03T04:39:27.389Z,92.70
2022-08-03T04:42:16.181Z,89.01
2022-08-03T04:45:01.060Z,84.55
2022-08-03T04:47:29.243Z,82.79
2022-08-03T04:49:56.184Z,86.09
2022-08-03T04:52:22.996Z,85.88
2022-08-03T04:54:50.938Z,80.31
2022-08-03T04:57:22.946Z,76.70
2022-08-03T05:00:02.117Z,73.02
2022-08-03T05:02:51.209Z,70.51
2022-08-03T05:05:34.919Z,68.14
2022-08-03T05:08:47.102Z,65.60
2022-08-03T05:11:51.254Z,66.25
2022-08-03T05:14:52.206Z,64.50
2022-08-03T05:17:53.242Z,62.69
2022-08-03T05:20:33.794Z,61.16
2022-08-03T05:23:01.969Z,63.33
2022-08-03T05:25:28.939Z,63.25
2022-08-03T05:27:55.924Z,63.14
2022-08-03T05:30:31.173Z,62.96
2022-08-03T05:33:00.626Z,64.25
2022-08-03T05:35:56.213Z,65.06
2022-08-03T05:38:20.898Z,62.93
2022-08-03T05:40:57.460Z,59.18
2022-08-03T05:43:41.940Z,55.43
2022-08-03T05:46:13.073Z,54.55
2022-08-03T05:48:40.275Z,52.58
2022-08-03T05:51:11.395Z,53.90
2022-08-03T05:53:39.522Z,48.08
2022-08-03T05:56:13.563Z,48.76
2022-08-03T05:58:46.865Z,47.14
2022-08-03T06:01:14.447Z,47.12
2022-08-03T06:03:41.718Z,48.67
2022-08-03T06:06:08.759Z,50.53
2022-08-03T06:08:56.256Z,49.97
2022-08-03T06:11:37.233Z,51.60
2022-08-03T06:14:24.246Z,48.29
2022-08-03T06:17:25.270Z,51.01
2022-08-03T06:20:06.947Z,46.34
2022-08-03T06:22:33.697Z,48.00
2022-08-03T06:25:04.900Z,47.18
2022-08-03T06:27:36.520Z,45.93
2022-08-03T06:30:04.902Z,48.43
2022-08-03T06:32:31.714Z,47.21
2022-08-03T06:34:58.507Z,47.13
2022-08-03T06:37:27.137Z,48.03
2022-08-03T06:39:54.329Z,42.16
2022-08-03T06:42:21.160Z,40.13
2022-08-03T06:45:10.273Z,39.69
2022-08-03T06:48:12.857Z,45.13
2022-08-03T06:50:41.069Z,47.58
2022-08-03T06:53:18.188Z,45.89
2022-08-03T06:55:52.437Z,47.19
2022-08-03T06:58:21.320Z,46.01
2022-08-03T07:00:48.173Z,44.95
2022-08-03T07:03:15.216Z,43.13
2022-08-03T07:05:43.521Z,38.17
2022-08-03T07:08:33.974Z,39.76
2022-08-03T07:11:14.868Z,39.02
2022-08-03T07:14:03.328Z,39.11
2022-08-03T07:16:44.401Z,40.04
2022-08-03T07:19:31.319Z,39.99
2022-08-03T07:22:32.298Z,42.62
2022-08-03T07:25:12.718Z,43.21
2022-08-03T07:27:43.118Z,43.66
2022-08-03T07:30:10.162Z,41.93
2022-08-03T07:32:37.086Z,42.63
2022-08-03T07:35:24.416Z,46.28
2022-08-03T07:37:54.928Z,45.96
2022-08-03T07:40:22.289Z,44.24
2022-08-03T07:42:52.127Z,40.67
2022-08-03T07:45:23.512Z,40.95
2022-08-03T07:47:57.699Z,43.41
2022-08-03T07:50:24.703Z,43.72
2022-08-03T07:52:53.104Z,43.97
2022-08-03T07:55:40.340Z,47.88
2022-08-03T07:58:24.354Z,45.13
2022-08-03T08:00:53.102Z,45.71
2022-08-03T08:03:21.931Z,45.82
2022-08-03T08:05:48.995Z,49.03
2022-08-03T08:08:36.354Z,43.46
2022-08-03T08:11:16.911Z,42.45
2022-08-03T08:14:04.330Z,46.95
2022-08-03T08:16:44.785Z,48.93
2022-08-03T08:19:12.842Z,44.64
2022-08-03T08:21:53.673Z,42.72
2022-08-03T08:24:26.651Z,43.12
2022-08-03T08:27:13.332Z,43.81
2022-08-03T08:30:17.373Z,43.45
2022-08-03T08:32:59.918Z,41.32
2022-08-03T08:35:27.417Z,41.31
2022-08-03T08:37:54.370Z,42.96
2022-08-03T08:40:22.471Z,43.41
2022-08-03T08:42:58.880Z,43.35
2022-08-03T08:45:27.488Z,44.52
2022-08-03T08:47:59.760Z,43.06
2022-08-03T08:50:29.768Z,45.24
2022-08-03T08:52:59.883Z,45.42
2022-08-03T08:55:58.097Z,45.67
2022-08-03T08:58:43.227Z,45.97
2022-08-03T09:01:10.289Z,45.22
2022-08-03T09:03:37.494Z,44.63
2022-08-03T09:06:04.787Z,47.23
2022-08-03T09:08:52.435Z,46.65
2022-08-03T09:11:57.718Z,45.95
2022-08-03T09:14:54.844Z,45.53
2022-08-03T09:17:41.171Z,48.22
2022-08-03T09:20:09.312Z,46.97
2022-08-03T09:22:36.428Z,45.94
2022-08-03T09:25:24.886Z,45.00
2022-08-03T09:28:52.580Z,44.93
2022-08-03T09:31:34.523Z,47.77
2022-08-03T09:34:05.965Z,46.91
2022-08-03T09:36:46.615Z,46.39
2022-08-03T09:39:14.879Z,48.21
2022-08-03T09:41:43.258Z,43.31
2022-08-03T09:44:24.553Z,42.70
2022-08-03T09:46:55.133Z,42.57
2022-08-03T09:49:22.234Z,41.93
2022-08-03T09:52:31.977Z,41.03
2022-08-03T09:54:36.039Z,39.91
2022-08-03T09:57:03.151Z,42.11
2022-08-03T09:59:50.412Z,40.94
2022-08-03T10:02:31.014Z,39.71
2022-08-03T10:05:19.972Z,39.46
2022-08-03T10:08:27.439Z,41.91
2022-08-03T10:11:08.230Z,40.56
2022-08-03T10:14:01.544Z,42.41
2022-08-03T10:16:42.301Z,44.15
2022-08-03T10:19:29.462Z,44.86
2022-08-03T10:22:18.889Z,45.41
2022-08-03T10:24:51.945Z,43.26
2022-08-03T10:27:19.713Z,42.14
2022-08-03T10:29:50.036Z,41.73
2022-08-03T10:32:31.777Z,41.76
2022-08-03T10:35:23.497Z,42.85
2022-08-03T10:38:26.574Z,41.83
2022-08-03T10:41:08.825Z,42.92
2022-08-03T10:43:51.559Z,41.75
2022-08-03T10:46:20.309Z,40.52
2022-08-03T10:48:49.197Z,39.93
2022-08-03T10:51:38.484Z,38.55
2022-08-03T10:54:37.277Z,37.96
2022-08-03T10:57:22.775Z,39.32
2022-08-03T10:59:50.640Z,38.43
2022-08-03T11:02:17.973Z,37.98
2022-08-03T11:04:47.711Z,38.94
2022-08-03T11:07:35.561Z,39.92
2022-08-03T11:10:45.462Z,40.41
2022-08-03T11:13:28.346Z,38.93
2022-08-03T11:16:21.233Z,38.79
2022-08-03T11:19:03.980Z,37.90
2022-08-03T11:21:50.220Z,39.54
2022-08-03T11:24:35.933Z,39.91
2022-08-03T11:27:15.354Z,40.44
2022-08-03T11:29:58.986Z,39.72
2022-08-03T11:32:38.317Z,37.59
2022-08-03T11:35:09.772Z,37.17
2022-08-03T11:37:37.263Z,37.61
2022-08-03T11:40:04.535Z,38.58
2022-08-03T11:42:53.475Z,38.73
2022-08-03T11:46:04.460Z,37.20
2022-08-03T11:48:46.375Z,37.67
2022-08-03T11:51:30.019Z,37.17
2022-08-03T11:54:00.259Z,36.50
2022-08-03T11:56:27.369Z,37.17
2022-08-03T11:59:17.516Z,37.29
2022-08-03T12:01:43.439Z,36.91
2022-08-03T12:04:11.821Z,34.09
2022-08-03T12:06:58.915Z,34.36
2022-08-03T12:09:48.521Z,34.50
2022-08-03T12:12:49.481Z,36.08
2022-08-03T12:15:51.533Z,36.77
2022-08-03T12:18:52.493Z,37.33
2022-08-03T12:21:32.975Z,36.50
2022-08-03T12:24:01.216Z,36.21
2022-08-03T12:26:29.313Z,36.08
2022-08-03T12:28:56.318Z,36.36
2022-08-03T12:31:23.293Z,35.88
2022-08-03T12:33:59.013Z,37.47
2022-08-03T12:36:26.886Z,37.87
2022-08-03T12:39:01.627Z,37.42
2022-08-03T12:41:48.590Z,37.89
2022-08-03T12:44:33.044Z,38.95
2022-08-03T12:47:00.517Z,37.90
2022-08-03T12:49:28.299Z,38.43
2022-08-03T12:52:15.547Z,37.27
2022-08-03T12:55:16.555Z,37.48
2022-08-03T12:57:56.975Z,36.67
2022-08-03T13:00:29.312Z,38.07
2022-08-03T13:03:39.716Z,39.13
2022-08-03T13:06:08.546Z,36.79
2022-08-03T13:09:19.593Z,36.18
2022-08-03T13:12:10.556Z,37.03
2022-08-03T13:15:02.299Z,37.14
2022-08-03T13:17:42.812Z,36.11
2022-08-03T13:20:10.262Z,36.94
2022-08-03T13:22:37.364Z,35.97
2022-08-03T13:25:04.312Z,36.02
2022-08-03T13:28:03.565Z,35.61
2022-08-03T13:30:29.883Z,35.87
2022-08-03T13:32:58.747Z,36.16
2022-08-03T13:35:26.360Z,35.26
2022-08-03T13:37:53.637Z,35.57
2022-08-03T13:40:23.661Z,35.09
2022-08-03T13:42:56.914Z,35.12
2022-08-03T13:45:27.011Z,36.92
2022-08-03T13:47:54.211Z,36.24
2022-08-03T13:50:21.026Z,36.12
2022-08-03T13:52:48.003Z,35.33
2022-08-03T13:55:14.866Z,35.48
2022-08-03T13:58:07.229Z,34.75
2022-08-03T14:01:08.714Z,34.46
2022-08-03T14:03:52.516Z,34.25
2022-08-03T14:06:19.436Z,35.40
2022-08-03T14:09:06.613Z,35.23
2022-08-03T14:12:04.083Z,35.40
2022-08-03T14:14:57.005Z,36.08
2022-08-03T14:17:42.216Z,35.86
2022-08-03T14:20:38.554Z,36.54
2022-08-03T14:23:04.015Z,36.29
2022-08-03T14:25:44.241Z,35.53
2022-08-03T14:28:18.314Z,34.54
2022-08-03T14:30:45.248Z,35.65
2022-08-03T14:33:12.170Z,34.58
2022-08-03T14:35:39.065Z,34.08
2022-08-03T14:38:06.531Z,35.14
2022-08-03T14:40:33.633Z,34.20
2022-08-03T14:43:00.452Z,33.46
2022-08-03T14:45:28.481Z,33.53
2022-08-03T14:50:33.887Z,34.40
2022-08-03T14:50:55.657Z,34.38
2022-08-03T14:53:36.141Z,34.19
2022-08-03T14:56:06.512Z,34.71
2022-08-03T14:58:36.868Z,34.38
2022-08-03T15:01:04.045Z,33.88
2022-08-03T15:03:50.950Z,34.75
2022-08-03T15:06:37.603Z,35.09
2022-08-03T15:09:38.635Z,33.83
2022-08-03T15:12:19.241Z,34.98
2022-08-03T15:15:06.667Z,34.05
2022-08-03T15:18:00.423Z,34.60
2022-08-03T15:20:42.442Z,34.46
2022-08-03T15:23:10.710Z,34.31
2022-08-03T15:26:28.085Z,34.86
2022-08-03T15:28:24.500Z,34.38
2022-08-03T15:31:11.674Z,33.85
2022-08-03T15:33:59.384Z,34.18
2022-08-03T15:36:26.171Z,34.02
2022-08-03T15:38:53.261Z,34.06
2022-08-03T15:41:20.228Z,34.01
2022-08-03T15:44:09.426Z,33.79
2022-08-03T15:46:52.285Z,33.88
2022-08-03T15:49:20.660Z,34.03
2022-08-03T15:51:48.027Z,33.73
2022-08-03T15:54:14.829Z,34.18
2022-08-03T15:56:45.259Z,33.70
2022-08-03T15:59:32.700Z,33.97
2022-08-03T16:02:13.136Z,34.11
2022-08-03T16:04:40.051Z,33.61
2022-08-03T16:07:06.915Z,33.53
2022-08-03T16:09:53.665Z,34.01
2022-08-03T16:12:54.648Z,33.83
2022-08-03T16:15:55.662Z,33.62
2022-08-03T16:18:36.136Z,33.29
2022-08-03T16:21:02.969Z,34.02
2022-08-03T16:23:30.052Z,34.78
2022-08-03T16:26:00.675Z,33.76
2022-08-03T16:28:47.704Z,35.05
2022-08-03T16:31:50.938Z,34.77
2022-08-03T16:34:32.356Z,34.45
2022-08-03T16:37:11.716Z,34.30
2022-08-03T16:39:46.812Z,34.40
2022-08-03T16:42:13.598Z,34.91
2022-08-03T16:44:40.496Z,34.26
2022-08-03T16:47:07.271Z,33.85
2022-08-03T16:49:55.210Z,33.91
2022-08-03T16:52:21.074Z,33.25
2022-08-03T16:54:50.514Z,33.47
2022-08-03T16:57:58.529Z,34.29
2022-08-03T17:01:00.727Z,34.58
2022-08-03T17:04:02.025Z,34.28
2022-08-03T17:06:50.686Z,34.47
2022-08-03T17:09:51.697Z,34.21
2022-08-03T17:12:36.223Z,33.75
2022-08-03T17:16:01.605Z,34.05
2022-08-03T17:18:48.703Z,34.69
2022-08-03T17:21:30.952Z,35.14
2022-08-03T17:24:14.615Z,35.84
2022-08-03T17:26:49.951Z,36.05
2022-08-03T17:29:17.976Z,36.31
2022-08-03T17:31:49.336Z,36.55
2022-08-03T17:34:17.090Z,36.51
2022-08-03T17:39:57.003Z,37.60
2022-08-03T17:42:30.296Z,37.93
2022-08-03T17:45:06.712Z,37.87
2022-08-03T17:47:42.881Z,37.61
2022-08-03T17:50:23.993Z,38.26
2022-08-03T17:53:15.363Z,38.65
2022-08-03T17:55:59.626Z,39.47
2022-08-03T17:58:37.762Z,39.29
2022-08-03T18:02:00.479Z,39.28
2022-08-03T18:04:57.331Z,39.86
2022-08-03T18:07:40.959Z,40.06
2022-08-03T18:10:49.906Z,40.76
2022-08-03T18:13:24.372Z,40.62
2022-08-03T18:16:15.748Z,40.71
2022-08-03T18:19:19.757Z,41.29
2022-08-03T18:22:22.206Z,40.94
2022-08-03T18:25:42.939Z,41.03
2022-08-03T18:28:29.688Z,41.62
2022-08-03T18:30:57.033Z,41.60
2022-08-03T18:34:18.153Z,41.81
2022-08-03T18:36:48.871Z,41.77
2022-08-03T18:39:15.920Z,41.39
2022-08-03T18:41:46.836Z,41.38
2022-08-03T18:44:45.547Z,41.43
2022-08-03T18:47:16.488Z,41.57
2022-08-03T18:50:02.548Z,42.60
2022-08-03T18:52:33.812Z,43.24
2022-08-03T18:55:21.014Z,43.34
2022-08-03T18:57:59.718Z,43.95
2022-08-03T19:00:56.552Z,44.68
2022-08-03T19:03:43.586Z,45.16
2022-08-03T19:06:19.405Z,45.67
2022-08-03T19:09:19.940Z,45.99
2022-08-03T19:12:32.331Z,46.31
2022-08-03T19:15:41.427Z,47.03
2022-08-03T19:18:22.682Z,47.45
2022-08-03T19:20:57.779Z,47.41
2022-08-03T19:24:00.793Z,48.19
2022-08-03T19:27:02.791Z,48.42
2022-08-03T19:30:05.012Z,48.90
2022-08-03T19:32:49.363Z,48.94
2022-08-03T19:35:18.779Z,48.83
2022-08-03T19:37:46.330Z,48.85
2022-08-03T19:40:13.161Z,48.42
2022-08-03T19:42:41.146Z,47.97
2022-08-03T19:45:11.232Z,48.01
2022-08-03T19:47:57.247Z,48.39
2022-08-03T19:50:24.538Z,53.26
2022-08-03T19:53:11.863Z,53.38
2022-08-03T19:55:53.770Z,49.83
2022-08-03T19:58:44.810Z,53.75
2022-08-03T20:01:50.137Z,52.16
2022-08-03T20:04:18.031Z,50.98
2022-08-03T20:07:07.870Z,50.31
2022-08-03T20:10:09.841Z,50.54
2022-08-03T20:13:10.825Z,51.23
2022-08-03T20:15:59.213Z,53.70
2022-08-03T20:18:45.844Z,53.58
2022-08-03T20:21:46.833Z,54.67
2022-08-03T20:24:52.573Z,54.29
2022-08-03T20:28:08.167Z,54.38
2022-08-03T20:30:26.419Z,55.68
2022-08-03T20:32:54.723Z,57.19
2022-08-03T20:35:21.705Z,55.13
2022-08-03T20:38:08.846Z,55.81
2022-08-03T20:40:49.452Z,55.97
2022-08-03T20:43:36.854Z,57.55
2022-08-03T20:46:30.861Z,55.86
2022-08-03T20:49:04.245Z,55.82
2022-08-03T20:51:53.134Z,55.57
2022-08-03T20:54:42.372Z,54.50
2022-08-03T20:57:10.614Z,54.89
2022-08-03T20:59:51.216Z,58.92
2022-08-03T21:02:30.018Z,61.43
2022-08-03T21:04:58.627Z,61.42
2022-08-03T21:08:05.175Z,59.90
2022-08-03T21:11:10.852Z,60.00
2022-08-03T21:14:02.554Z,60.41
2022-08-03T21:16:32.522Z,58.17
2022-08-03T21:18:59.858Z,56.23
2022-08-03T21:21:49.885Z,57.24
2022-08-03T21:24:31.479Z,58.54
2022-08-03T21:27:18.992Z,57.84
2022-08-03T21:30:21.903Z,58.34
2022-08-03T21:33:02.406Z,58.38
2022-08-03T21:35:31.287Z,59.71
2022-08-03T21:38:17.072Z,62.93
2022-08-03T21:40:43.844Z,61.03
2022-08-03T21:43:10.624Z,64.92
2022-08-03T21:45:45.340Z,63.37
2022-08-03T21:48:13.345Z,61.95
2022-08-03T21:50:41.586Z,59.62
2022-08-03T21:53:09.525Z,59.78
2022-08-03T21:55:38.885Z,59.00
2022-08-03T21:58:06.141Z,60.02
2022-08-03T22:00:33.193Z,61.35
2022-08-03T22:03:15.128Z,61.37
2022-08-03T22:05:44.300Z,60.54
2022-08-03T22:08:30.892Z,60.93
2022-08-03T22:11:31.908Z,60.89
2022-08-03T22:14:21.841Z,60.55
2022-08-03T22:16:49.200Z,60.70
2022-08-03T22:19:35.900Z,60.85
2022-08-03T22:22:36.901Z,61.41
2022-08-03T22:25:17.761Z,61.81
2022-08-03T22:27:45.794Z,62.14
2022-08-03T22:30:14.824Z,62.29
2022-08-03T22:32:42.473Z,61.61
2022-08-03T22:35:11.321Z,63.79
2022-08-03T22:37:39.133Z,62.52
2022-08-03T22:40:09.957Z,62.93
2022-08-03T22:42:36.964Z,62.60
2022-08-03T22:46:07.155Z,64.26
2022-08-03T22:48:45.942Z,70.35
2022-08-03T22:51:26.429Z,67.21
2022-08-03T22:54:13.949Z,69.78
2022-08-03T22:56:54.414Z,70.23
2022-08-03T22:59:41.437Z,68.03
2022-08-03T23:02:21.116Z,66.41
2022-08-03T23:05:11.008Z,67.88
2022-08-03T23:08:21.953Z,67.79
2022-08-03T23:11:22.967Z,68.20
2022-08-03T23:14:06.346Z,68.74
2022-08-03T23:16:53.941Z,68.27
2022-08-03T23:19:44.669Z,68.42
2022-08-03T23:22:29.474Z,68.78
2022-08-03T23:24:58.410Z,69.23
2022-08-03T23:27:26.657Z,69.05
2022-08-03T23:29:53.837Z,69.48
2022-08-03T23:32:21.102Z,69.51
2022-08-03T23:35:07.668Z,69.96
2022-08-03T23:37:34.858Z,69.87
2022-08-03T23:40:26.419Z,70.72
2022-08-03T23:42:53.521Z,70.59
2022-08-03T23:45:20.748Z,71.21
2022-08-03T23:47:48.353Z,71.13
2022-08-03T23:50:15.738Z,71.05
2022-08-03T23:52:52.781Z,71.56
2022-08-03T23:55:58.968Z,71.42
2022-08-03T23:59:05.969Z,70.71
